METAR Data
IDs: Format: Raw Decoded Include TAF

Data at: 0223 UTC 25 Feb 2021

GCLP 250200Z 01018KT 9999 SCT020 18/14 Q1025 NOSIG